sensor_id;sensor_type;location;lat;lon;timestamp;P1;durP1;ratioP1;P2;durP2;ratioP2
45863;SDS011;31579;52.354;16.974;2023-05-10T00:04:58;11.50;;;6.00;;
45863;SDS011;31579;52.354;16.974;2023-05-10T00:09:58;11.70;;;5.20;;
45863;SDS011;31579;52.354;16.974;2023-05-10T00:14:58;11.70;;;5.20;;
45863;SDS011;31579;52.354;16.974;2023-05-10T00:19:58;11.80;;;5.90;;
45863;SDS011;31579;52.354;16.974;2023-05-10T00:24:58;11.80;;;5.90;;
45863;SDS011;31579;52.354;16.974;2023-05-10T00:30:00;12.00;;;5.70;;
45863;SDS011;31579;52.354;16.974;2023-05-10T00:34:58;12.00;;;5.70;;
45863;SDS011;31579;52.354;16.974;2023-05-10T00:39:58;10.40;;;5.30;;
45863;SDS011;31579;52.354;16.974;2023-05-10T00:44:58;10.40;;;5.30;;
45863;SDS011;31579;52.354;16.974;2023-05-10T00:49:58;10.00;;;5.50;;
45863;SDS011;31579;52.354;16.974;2023-05-10T00:54:58;10.00;;;5.50;;
45863;SDS011;31579;52.354;16.974;2023-05-10T00:59:58;15.70;;;5.90;;
45863;SDS011;31579;52.354;16.974;2023-05-10T01:04:58;15.70;;;5.90;;
45863;SDS011;31579;52.354;16.974;2023-05-10T01:09:58;11.60;;;5.50;;
45863;SDS011;31579;52.354;16.974;2023-05-10T01:14:58;11.60;;;5.50;;
45863;SDS011;31579;52.354;16.974;2023-05-10T01:19:58;10.60;;;5.50;;
45863;SDS011;31579;52.354;16.974;2023-05-10T01:30:08;11.70;;;5.60;;
45863;SDS011;31579;52.354;16.974;2023-05-10T01:40:00;9.60;;;5.50;;
45863;SDS011;31579;52.354;16.974;2023-05-10T01:45:00;9.60;;;5.50;;
45863;SDS011;31579;52.354;16.974;2023-05-10T01:50:01;11.90;;;5.40;;
45863;SDS011;31579;52.354;16.974;2023-05-10T01:55:02;11.90;;;5.40;;
45863;SDS011;31579;52.354;16.974;2023-05-10T01:59:58;10.40;;;5.40;;
45863;SDS011;31579;52.354;16.974;2023-05-10T02:04:58;10.40;;;5.40;;
45863;SDS011;31579;52.354;16.974;2023-05-10T02:09:58;12.10;;;5.40;;
45863;SDS011;31579;52.354;16.974;2023-05-10T02:14:59;12.10;;;5.40;;
45863;SDS011;31579;52.354;16.974;2023-05-10T02:19:59;11.30;;;5.80;;
45863;SDS011;31579;52.354;16.974;2023-05-10T02:29:03;10.30;;;5.40;;
45863;SDS011;31579;52.354;16.974;2023-05-10T02:34:03;10.30;;;5.40;;
45863;SDS011;31579;52.354;16.974;2023-05-10T02:39:03;11.40;;;6.00;;
45863;SDS011;31579;52.354;16.974;2023-05-10T02:44:03;11.40;;;6.00;;
45863;SDS011;31579;52.354;16.974;2023-05-10T02:49:03;11.30;;;5.80;;
45863;SDS011;31579;52.354;16.974;2023-05-10T02:54:10;11.30;;;5.80;;
45863;SDS011;31579;52.354;16.974;2023-05-10T02:59:03;9.10;;;5.50;;
45863;SDS011;31579;52.354;16.974;2023-05-10T03:04:03;9.10;;;5.50;;
45863;SDS011;31579;52.354;16.974;2023-05-10T03:09:03;10.00;;;5.90;;
45863;SDS011;31579;52.354;16.974;2023-05-10T03:14:07;10.00;;;5.90;;
45863;SDS011;31579;52.354;16.974;2023-05-10T03:24:05;11.70;;;5.70;;
45863;SDS011;31579;52.354;16.974;2023-05-10T03:29:03;10.70;;;5.60;;
45863;SDS011;31579;52.354;16.974;2023-05-10T03:34:03;10.70;;;5.60;;
45863;SDS011;31579;52.354;16.974;2023-05-10T03:39:03;12.90;;;5.90;;
45863;SDS011;31579;52.354;16.974;2023-05-10T03:44:05;12.90;;;5.90;;
45863;SDS011;31579;52.354;16.974;2023-05-10T03:49:03;12.80;;;6.00;;
45863;SDS011;31579;52.354;16.974;2023-05-10T03:54:03;12.80;;;6.00;;
45863;SDS011;31579;52.354;16.974;2023-05-10T03:59:03;12.30;;;5.40;;
45863;SDS011;31579;52.354;16.974;2023-05-10T04:04:03;12.30;;;5.40;;
45863;SDS011;31579;52.354;16.974;2023-05-10T04:09:03;14.20;;;6.40;;
45863;SDS011;31579;52.354;16.974;2023-05-10T04:14:03;14.20;;;6.40;;
45863;SDS011;31579;52.354;16.974;2023-05-10T04:16:05;14.20;;;6.40;;
45863;SDS011;31579;52.354;16.974;2023-05-10T04:21:03;11.80;;;6.50;;
45863;SDS011;31579;52.354;16.974;2023-05-10T04:26:03;11.80;;;6.50;;
45863;SDS011;31579;52.354;16.974;2023-05-10T04:31:03;12.50;;;6.20;;
45863;SDS011;31579;52.354;16.974;2023-05-10T04:36:03;12.50;;;6.20;;
45863;SDS011;31579;52.354;16.974;2023-05-10T04:41:05;14.20;;;6.50;;
45863;SDS011;31579;52.354;16.974;2023-05-10T04:46:04;14.20;;;6.50;;
45863;SDS011;31579;52.354;16.974;2023-05-10T04:52:10;14.20;;;6.50;;
45863;SDS011;31579;52.354;16.974;2023-05-10T04:57:10;14.20;;;6.50;;
45863;SDS011;31579;52.354;16.974;2023-05-10T05:02:10;14.00;;;6.10;;
45863;SDS011;31579;52.354;16.974;2023-05-10T05:07:10;14.00;;;6.10;;
45863;SDS011;31579;52.354;16.974;2023-05-10T05:12:10;9.80;;;5.80;;
45863;SDS011;31579;52.354;16.974;2023-05-10T05:17:13;9.80;;;5.80;;
45863;SDS011;31579;52.354;16.974;2023-05-10T05:22:10;12.30;;;5.70;;
45863;SDS011;31579;52.354;16.974;2023-05-10T05:27:10;12.30;;;5.70;;
45863;SDS011;31579;52.354;16.974;2023-05-10T05:32:10;11.60;;;5.80;;
45863;SDS011;31579;52.354;16.974;2023-05-10T05:42:10;9.70;;;5.50;;
45863;SDS011;31579;52.354;16.974;2023-05-10T05:47:10;9.70;;;5.50;;
45863;SDS011;31579;52.354;16.974;2023-05-10T05:52:10;10.20;;;5.80;;
45863;SDS011;31579;52.354;16.974;2023-05-10T05:57:10;10.20;;;5.80;;
45863;SDS011;31579;52.354;16.974;2023-05-10T06:02:10;10.10;;;5.70;;
45863;SDS011;31579;52.354;16.974;2023-05-10T06:07:10;10.10;;;5.70;;
45863;SDS011;31579;52.354;16.974;2023-05-10T06:12:10;10.60;;;5.30;;
45863;SDS011;31579;52.354;16.974;2023-05-10T06:17:10;10.60;;;5.30;;
45863;SDS011;31579;52.354;16.974;2023-05-10T06:22:10;14.70;;;6.30;;
45863;SDS011;31579;52.354;16.974;2023-05-10T06:27:10;14.70;;;6.30;;
45863;SDS011;31579;52.354;16.974;2023-05-10T06:32:10;10.10;;;6.20;;
45863;SDS011;31579;52.354;16.974;2023-05-10T06:37:12;10.10;;;6.20;;
45863;SDS011;31579;52.354;16.974;2023-05-10T06:41:33;10.70;;;5.60;;
45863;SDS011;31579;52.354;16.974;2023-05-10T06:46:31;10.70;;;5.60;;
45863;SDS011;31579;52.354;16.974;2023-05-10T06:51:31;12.50;;;4.90;;
45863;SDS011;31579;52.354;16.974;2023-05-10T06:56:31;12.50;;;4.90;;
45863;SDS011;31579;52.354;16.974;2023-05-10T07:01:31;10.20;;;5.20;;
45863;SDS011;31579;52.354;16.974;2023-05-10T07:06:31;10.20;;;5.20;;
45863;SDS011;31579;52.354;16.974;2023-05-10T07:11:35;8.00;;;4.50;;
45863;SDS011;31579;52.354;16.974;2023-05-10T07:16:31;8.00;;;4.50;;
45863;SDS011;31579;52.354;16.974;2023-05-10T07:21:31;9.00;;;5.10;;
45863;SDS011;31579;52.354;16.974;2023-05-10T07:26:31;9.00;;;5.10;;
45863;SDS011;31579;52.354;16.974;2023-05-10T07:31:31;8.50;;;4.70;;
45863;SDS011;31579;52.354;16.974;2023-05-10T07:36:31;8.50;;;4.70;;
45863;SDS011;31579;52.354;16.974;2023-05-10T07:46:19;8.70;;;4.60;;
45863;SDS011;31579;52.354;16.974;2023-05-10T07:51:19;7.90;;;4.60;;
45863;SDS011;31579;52.354;16.974;2023-05-10T08:01:19;7.20;;;3.90;;
45863;SDS011;31579;52.354;16.974;2023-05-10T08:06:19;7.20;;;3.90;;
45863;SDS011;31579;52.354;16.974;2023-05-10T08:11:22;8.60;;;4.30;;
45863;SDS011;31579;52.354;16.974;2023-05-10T08:18:24;7.30;;;3.70;;
45863;SDS011;31579;52.354;16.974;2023-05-10T08:23:24;7.30;;;3.70;;
45863;SDS011;31579;52.354;16.974;2023-05-10T08:28:24;8.10;;;3.90;;
45863;SDS011;31579;52.354;16.974;2023-05-10T08:33:24;8.10;;;3.90;;
45863;SDS011;31579;52.354;16.974;2023-05-10T08:38:24;6.10;;;3.90;;
45863;SDS011;31579;52.354;16.974;2023-05-10T08:43:27;6.10;;;3.90;;
45863;SDS011;31579;52.354;16.974;2023-05-10T08:48:27;7.00;;;2.80;;
45863;SDS011;31579;52.354;16.974;2023-05-10T08:53:25;7.00;;;2.80;;
45863;SDS011;31579;52.354;16.974;2023-05-10T08:58:25;6.00;;;3.00;;
45863;SDS011;31579;52.354;16.974;2023-05-10T09:03:25;6.00;;;3.00;;
45863;SDS011;31579;52.354;16.974;2023-05-10T09:08:25;8.00;;;3.10;;
45863;SDS011;31579;52.354;16.974;2023-05-10T09:13:25;8.00;;;3.10;;
45863;SDS011;31579;52.354;16.974;2023-05-10T09:18:25;6.90;;;2.50;;
45863;SDS011;31579;52.354;16.974;2023-05-10T09:23:25;6.90;;;2.50;;
45863;SDS011;31579;52.354;16.974;2023-05-10T09:28:25;4.90;;;2.20;;
45863;SDS011;31579;52.354;16.974;2023-05-10T09:33:25;4.90;;;2.20;;
45863;SDS011;31579;52.354;16.974;2023-05-10T09:38:25;5.50;;;2.20;;
45863;SDS011;31579;52.354;16.974;2023-05-10T09:43:25;5.50;;;2.20;;
45863;SDS011;31579;52.354;16.974;2023-05-10T09:48:25;7.70;;;2.40;;
45863;SDS011;31579;52.354;16.974;2023-05-10T09:53:25;7.70;;;2.40;;
45863;SDS011;31579;52.354;16.974;2023-05-10T09:58:00;7.70;;;2.40;;
45863;SDS011;31579;52.354;16.974;2023-05-10T10:02:58;4.20;;;1.80;;
45863;SDS011;31579;52.354;16.974;2023-05-10T10:07:59;4.20;;;1.80;;
45863;SDS011;31579;52.354;16.974;2023-05-10T10:12:58;6.00;;;2.50;;
45863;SDS011;31579;52.354;16.974;2023-05-10T10:17:58;6.00;;;2.50;;
45863;SDS011;31579;52.354;16.974;2023-05-10T10:22:58;5.50;;;2.20;;
45863;SDS011;31579;52.354;16.974;2023-05-10T10:28:05;5.50;;;2.20;;
45863;SDS011;31579;52.354;16.974;2023-05-10T10:37:58;4.40;;;1.90;;
45863;SDS011;31579;52.354;16.974;2023-05-10T10:43:21;5.20;;;2.20;;
45863;SDS011;31579;52.354;16.974;2023-05-10T10:52:58;3.60;;;1.80;;
45863;SDS011;31579;52.354;16.974;2023-05-10T10:57:58;3.60;;;1.80;;
45863;SDS011;31579;52.354;16.974;2023-05-10T11:13:08;4.90;;;2.20;;
45863;SDS011;31579;52.354;16.974;2023-05-10T11:23:11;6.70;;;2.10;;
45863;SDS011;31579;52.354;16.974;2023-05-10T11:28:08;5.80;;;2.30;;
45863;SDS011;31579;52.354;16.974;2023-05-10T11:33:08;5.80;;;2.30;;
45863;SDS011;31579;52.354;16.974;2023-05-10T11:38:08;7.20;;;2.60;;
45863;SDS011;31579;52.354;16.974;2023-05-10T11:43:08;7.20;;;2.60;;
45863;SDS011;31579;52.354;16.974;2023-05-10T11:48:08;6.10;;;2.10;;
45863;SDS011;31579;52.354;16.974;2023-05-10T11:54:05;6.10;;;2.10;;
45863;SDS011;31579;52.354;16.974;2023-05-10T11:59:02;8.00;;;2.60;;
45863;SDS011;31579;52.354;16.974;2023-05-10T12:04:02;8.00;;;2.60;;
45863;SDS011;31579;52.354;16.974;2023-05-10T12:09:05;5.40;;;2.10;;
45863;SDS011;31579;52.354;16.974;2023-05-10T12:14:03;5.40;;;2.10;;
45863;SDS011;31579;52.354;16.974;2023-05-10T12:19:04;5.70;;;2.40;;
45863;SDS011;31579;52.354;16.974;2023-05-10T12:24:02;5.70;;;2.40;;
45863;SDS011;31579;52.354;16.974;2023-05-10T12:34:02;4.90;;;2.70;;
45863;SDS011;31579;52.354;16.974;2023-05-10T12:39:02;6.80;;;2.50;;
45863;SDS011;31579;52.354;16.974;2023-05-10T12:44:02;6.80;;;2.50;;
45863;SDS011;31579;52.354;16.974;2023-05-10T12:49:02;8.90;;;2.70;;
45863;SDS011;31579;52.354;16.974;2023-05-10T12:58:09;5.60;;;2.50;;
45863;SDS011;31579;52.354;16.974;2023-05-10T13:03:09;5.60;;;2.50;;
45863;SDS011;31579;52.354;16.974;2023-05-10T13:08:09;4.90;;;2.40;;
45863;SDS011;31579;52.354;16.974;2023-05-10T13:13:09;4.90;;;2.40;;
45863;SDS011;31579;52.354;16.974;2023-05-10T13:18:09;4.70;;;2.20;;
45863;SDS011;31579;52.354;16.974;2023-05-10T13:23:12;4.70;;;2.20;;
45863;SDS011;31579;52.354;16.974;2023-05-10T13:28:09;3.90;;;2.30;;
45863;SDS011;31579;52.354;16.974;2023-05-10T13:33:09;3.90;;;2.30;;
45863;SDS011;31579;52.354;16.974;2023-05-10T13:38:09;4.70;;;2.50;;
45863;SDS011;31579;52.354;16.974;2023-05-10T13:43:09;4.70;;;2.50;;
45863;SDS011;31579;52.354;16.974;2023-05-10T13:48:09;4.40;;;2.50;;
45863;SDS011;31579;52.354;16.974;2023-05-10T13:53:09;4.40;;;2.50;;
45863;SDS011;31579;52.354;16.974;2023-05-10T13:58:09;7.00;;;2.60;;
45863;SDS011;31579;52.354;16.974;2023-05-10T13:58:19;7.00;;;2.60;;
45863;SDS011;31579;52.354;16.974;2023-05-10T14:03:17;7.00;;;2.60;;
45863;SDS011;31579;52.354;16.974;2023-05-10T14:08:17;6.20;;;3.00;;
45863;SDS011;31579;52.354;16.974;2023-05-10T14:13:17;6.20;;;3.00;;
45863;SDS011;31579;52.354;16.974;2023-05-10T14:18:17;7.30;;;2.90;;
45863;SDS011;31579;52.354;16.974;2023-05-10T14:23:17;7.30;;;2.90;;
45863;SDS011;31579;52.354;16.974;2023-05-10T14:28:18;7.40;;;3.00;;
45863;SDS011;31579;52.354;16.974;2023-05-10T14:33:17;7.40;;;3.00;;
45863;SDS011;31579;52.354;16.974;2023-05-10T14:38:17;5.00;;;2.70;;
45863;SDS011;31579;52.354;16.974;2023-05-10T14:42:08;5.00;;;2.70;;
45863;SDS011;31579;52.354;16.974;2023-05-10T14:47:07;5.00;;;2.70;;
45863;SDS011;31579;52.354;16.974;2023-05-10T14:55:11;5.30;;;2.60;;
45863;SDS011;31579;52.354;16.974;2023-05-10T15:00:10;5.90;;;2.80;;
45863;SDS011;31579;52.354;16.974;2023-05-10T15:05:10;5.90;;;2.80;;
45863;SDS011;31579;52.354;16.974;2023-05-10T15:10:10;6.90;;;3.00;;
45863;SDS011;31579;52.354;16.974;2023-05-10T15:15:10;6.90;;;3.00;;
45863;SDS011;31579;52.354;16.974;2023-05-10T15:20:10;5.50;;;3.10;;
45863;SDS011;31579;52.354;16.974;2023-05-10T15:25:09;5.50;;;3.10;;
45863;SDS011;31579;52.354;16.974;2023-05-10T15:30:10;4.80;;;3.20;;
45863;SDS011;31579;52.354;16.974;2023-05-10T15:35:09;4.80;;;3.20;;
45863;SDS011;31579;52.354;16.974;2023-05-10T15:40:11;5.10;;;3.00;;
45863;SDS011;31579;52.354;16.974;2023-05-10T15:45:10;5.10;;;3.00;;
45863;SDS011;31579;52.354;16.974;2023-05-10T15:50:09;5.50;;;3.40;;
45863;SDS011;31579;52.354;16.974;2023-05-10T15:55:09;5.50;;;3.40;;
45863;SDS011;31579;52.354;16.974;2023-05-10T16:00:10;5.40;;;3.00;;
45863;SDS011;31579;52.354;16.974;2023-05-10T16:05:09;5.40;;;3.00;;
45863;SDS011;31579;52.354;16.974;2023-05-10T16:10:10;6.60;;;3.30;;
45863;SDS011;31579;52.354;16.974;2023-05-10T16:15:10;6.60;;;3.30;;
45863;SDS011;31579;52.354;16.974;2023-05-10T16:20:10;6.80;;;3.40;;
45863;SDS011;31579;52.354;16.974;2023-05-10T16:25:10;6.80;;;3.40;;
45863;SDS011;31579;52.354;16.974;2023-05-10T16:29:15;7.10;;;2.80;;
45863;SDS011;31579;52.354;16.974;2023-05-10T16:34:14;7.10;;;2.80;;
45863;SDS011;31579;52.354;16.974;2023-05-10T16:39:14;7.40;;;3.20;;
45863;SDS011;31579;52.354;16.974;2023-05-10T16:44:14;7.40;;;3.20;;
45863;SDS011;31579;52.354;16.974;2023-05-10T16:49:14;4.70;;;2.60;;
45863;SDS011;31579;52.354;16.974;2023-05-10T16:54:14;4.70;;;2.60;;
45863;SDS011;31579;52.354;16.974;2023-05-10T16:59:14;7.10;;;3.10;;
45863;SDS011;31579;52.354;16.974;2023-05-10T17:04:14;7.10;;;3.10;;
45863;SDS011;31579;52.354;16.974;2023-05-10T17:09:14;8.00;;;3.10;;
45863;SDS011;31579;52.354;16.974;2023-05-10T17:14:14;8.00;;;3.10;;
45863;SDS011;31579;52.354;16.974;2023-05-10T17:19:14;7.10;;;3.30;;
45863;SDS011;31579;52.354;16.974;2023-05-10T17:24:14;7.10;;;3.30;;
45863;SDS011;31579;52.354;16.974;2023-05-10T17:29:14;6.50;;;3.00;;
45863;SDS011;31579;52.354;16.974;2023-05-10T17:34:14;6.50;;;3.00;;
45863;SDS011;31579;52.354;16.974;2023-05-10T17:39:14;8.20;;;3.70;;
45863;SDS011;31579;52.354;16.974;2023-05-10T17:44:14;8.20;;;3.70;;
45863;SDS011;31579;52.354;16.974;2023-05-10T17:49:14;6.60;;;3.50;;
45863;SDS011;31579;52.354;16.974;2023-05-10T17:54:14;6.60;;;3.50;;
45863;SDS011;31579;52.354;16.974;2023-05-10T17:59:14;9.10;;;4.00;;
45863;SDS011;31579;52.354;16.974;2023-05-10T18:04:14;9.10;;;4.00;;
45863;SDS011;31579;52.354;16.974;2023-05-10T18:09:14;6.90;;;3.80;;
45863;SDS011;31579;52.354;16.974;2023-05-10T18:14:14;6.90;;;3.80;;
45863;SDS011;31579;52.354;16.974;2023-05-10T18:19:14;7.60;;;3.70;;
45863;SDS011;31579;52.354;16.974;2023-05-10T18:26:19;7.60;;;3.70;;
45863;SDS011;31579;52.354;16.974;2023-05-10T18:31:19;8.90;;;3.80;;
45863;SDS011;31579;52.354;16.974;2023-05-10T18:36:19;8.90;;;3.80;;
45863;SDS011;31579;52.354;16.974;2023-05-10T18:45:44;6.70;;;4.10;;
45863;SDS011;31579;52.354;16.974;2023-05-10T18:50:44;10.80;;;3.90;;
45863;SDS011;31579;52.354;16.974;2023-05-10T18:55:44;10.80;;;3.90;;
45863;SDS011;31579;52.354;16.974;2023-05-10T19:00:44;6.90;;;3.60;;
45863;SDS011;31579;52.354;16.974;2023-05-10T19:05:44;6.90;;;3.60;;
45863;SDS011;31579;52.354;16.974;2023-05-10T19:10:45;7.20;;;3.70;;
45863;SDS011;31579;52.354;16.974;2023-05-10T19:15:44;7.20;;;3.70;;
45863;SDS011;31579;52.354;16.974;2023-05-10T19:20:44;8.50;;;4.20;;
45863;SDS011;31579;52.354;16.974;2023-05-10T19:25:44;8.50;;;4.20;;
45863;SDS011;31579;52.354;16.974;2023-05-10T19:30:44;8.40;;;3.90;;
45863;SDS011;31579;52.354;16.974;2023-05-10T19:35:44;8.40;;;3.90;;
45863;SDS011;31579;52.354;16.974;2023-05-10T19:40:44;12.20;;;4.40;;
45863;SDS011;31579;52.354;16.974;2023-05-10T19:45:44;12.20;;;4.40;;
45863;SDS011;31579;52.354;16.974;2023-05-10T19:50:44;7.10;;;3.70;;
45863;SDS011;31579;52.354;16.974;2023-05-10T19:55:44;7.10;;;3.70;;
45863;SDS011;31579;52.354;16.974;2023-05-10T20:00:44;7.30;;;4.00;;
45863;SDS011;31579;52.354;16.974;2023-05-10T20:05:44;7.30;;;4.00;;
45863;SDS011;31579;52.354;16.974;2023-05-10T20:10:44;9.20;;;4.20;;
45863;SDS011;31579;52.354;16.974;2023-05-10T20:15:44;9.20;;;4.20;;
45863;SDS011;31579;52.354;16.974;2023-05-10T20:21:52;8.50;;;4.20;;
45863;SDS011;31579;52.354;16.974;2023-05-10T20:26:52;8.50;;;4.20;;
45863;SDS011;31579;52.354;16.974;2023-05-10T20:31:52;9.90;;;4.00;;
45863;SDS011;31579;52.354;16.974;2023-05-10T20:36:52;9.90;;;4.00;;
45863;SDS011;31579;52.354;16.974;2023-05-10T20:41:52;10.40;;;4.40;;
45863;SDS011;31579;52.354;16.974;2023-05-10T20:46:56;10.40;;;4.40;;
45863;SDS011;31579;52.354;16.974;2023-05-10T20:51:53;12.70;;;5.40;;
45863;SDS011;31579;52.354;16.974;2023-05-10T20:56:52;12.70;;;5.40;;
45863;SDS011;31579;52.354;16.974;2023-05-10T21:01:52;8.30;;;4.10;;
45863;SDS011;31579;52.354;16.974;2023-05-10T21:06:52;8.30;;;4.10;;
45863;SDS011;31579;52.354;16.974;2023-05-10T21:11:52;8.00;;;4.60;;
45863;SDS011;31579;52.354;16.974;2023-05-10T21:16:52;8.00;;;4.60;;
45863;SDS011;31579;52.354;16.974;2023-05-10T21:21:52;7.90;;;4.40;;
45863;SDS011;31579;52.354;16.974;2023-05-10T21:28:01;8.80;;;4.50;;
45863;SDS011;31579;52.354;16.974;2023-05-10T21:33:01;8.80;;;4.50;;
45863;SDS011;31579;52.354;16.974;2023-05-10T21:38:01;8.90;;;4.70;;
45863;SDS011;31579;52.354;16.974;2023-05-10T21:43:01;8.90;;;4.70;;
45863;SDS011;31579;52.354;16.974;2023-05-10T21:48:01;7.80;;;4.30;;
45863;SDS011;31579;52.354;16.974;2023-05-10T21:53:01;7.80;;;4.30;;
45863;SDS011;31579;52.354;16.974;2023-05-10T21:58:01;9.40;;;4.60;;
45863;SDS011;31579;52.354;16.974;2023-05-10T22:03:01;9.40;;;4.60;;
45863;SDS011;31579;52.354;16.974;2023-05-10T22:08:07;11.10;;;4.80;;
45863;SDS011;31579;52.354;16.974;2023-05-10T22:13:01;11.10;;;4.80;;
45863;SDS011;31579;52.354;16.974;2023-05-10T22:18:02;9.50;;;4.90;;
45863;SDS011;31579;52.354;16.974;2023-05-10T22:23:02;9.50;;;4.90;;
45863;SDS011;31579;52.354;16.974;2023-05-10T22:25:05;9.50;;;4.90;;
45863;SDS011;31579;52.354;16.974;2023-05-10T22:30:03;11.00;;;4.90;;
45863;SDS011;31579;52.354;16.974;2023-05-10T22:35:03;11.00;;;4.90;;
45863;SDS011;31579;52.354;16.974;2023-05-10T22:40:03;9.20;;;4.70;;
45863;SDS011;31579;52.354;16.974;2023-05-10T22:45:03;9.20;;;4.70;;
45863;SDS011;31579;52.354;16.974;2023-05-10T22:50:03;9.00;;;5.20;;
45863;SDS011;31579;52.354;16.974;2023-05-10T22:55:06;9.00;;;5.20;;
45863;SDS011;31579;52.354;16.974;2023-05-10T23:00:03;10.80;;;5.30;;
45863;SDS011;31579;52.354;16.974;2023-05-10T23:05:03;10.80;;;5.30;;
45863;SDS011;31579;52.354;16.974;2023-05-10T23:10:03;9.10;;;5.40;;
45863;SDS011;31579;52.354;16.974;2023-05-10T23:15:03;9.10;;;5.40;;
45863;SDS011;31579;52.354;16.974;2023-05-10T23:20:03;11.30;;;5.00;;
45863;SDS011;31579;52.354;16.974;2023-05-10T23:25:03;11.30;;;5.00;;
45863;SDS011;31579;52.354;16.974;2023-05-10T23:30:03;9.30;;;4.90;;
45863;SDS011;31579;52.354;16.974;2023-05-10T23:35:13;9.30;;;4.90;;
45863;SDS011;31579;52.354;16.974;2023-05-10T23:40:11;9.00;;;4.90;;
45863;SDS011;31579;52.354;16.974;2023-05-10T23:45:11;9.00;;;4.90;;
45863;SDS011;31579;52.354;16.974;2023-05-10T23:50:11;8.70;;;5.00;;
45863;SDS011;31579;52.354;16.974;2023-05-10T23:55:11;8.70;;;5.00;;
